Estaciones Metar próximas

 

LELL - Sabadell, Spain
Distancia a la estación: E 18km
Actualizado: 29/03/2020 07:00
Despejado
Despejado
 Viento del O
Viento: O 6 km/h
Temperatura: 6°C
Rocío: 4°C
Humedad: 87%
Barómetro: 1015 hPa
Resumen: Despejado
Visibilidad: greater than 10 km
2020/03/29 05:00 LELL 290500Z AUTO 28003KT CAVOK 06/04 Q1015
LEBL - Barcelona Airpor, Spain
Distancia a la estación: SSE 33km
Actualizado: 29/03/2020 07:00
Despejado
Despejado
 Viento del NO
Viento: NO 13 km/h
Temperatura: 9°C
Sensación Térmica: 7°C
Rocío: 5°C
Humedad: 76%
Barómetro: 1015 hPa
Resumen: Despejado
Visibilidad: greater than 10 km
2020/03/29 05:00 LEBL 290500Z 32007KT CAVOK 09/05 Q1015 NOSIG
LERS - Reus (civ/Mil), Spain
Distancia a la estación: SO 75km
Actualizado: 29/03/2020 07:00
Nubes dispersas
Nubes dispersas
 Viento del varies
Viento: varies 2 km/h
Temperatura: 7°C
Rocío: 7°C
Humedad: 100%
Barómetro: 1015 hPa
Nubes: Nubes dispersas
Visibilidad: 10 km
Detalle Nubes: Nubes dispersas 1219 m
2020/03/29 05:00 LERS 290500Z VRB01KT 9999 FEW040 07/07 Q1015
 
LEGE - Gerona/Costa Bra, Spain
Distancia a la estación: ENE 83km
Actualizado: 29/03/2020 07:00
Mist, Parcialmente nuboso
Mist, Parcialmente nuboso
 Viento del calm
Viento: Calma
Temperatura: 4°C
Rocío: 4°C
Humedad: 100%
Barómetro: 1015 hPa
Resumen: Mist
Nubes: Parcialmente nuboso
Visibilidad: 3 km
2020/03/29 05:00 LEGE 290500Z 00000KT 3000 BR NSC 04/04 Q1015
LFMP - Perpignan/Rivesa, France
Distancia a la estación: NNE 155km
Actualizado: 29/03/2020 07:00
Despejado
Despejado
 Viento del varies
Viento: varies 4 km/h
Temperatura: 13°C
Rocío: 2°C
Humedad: 47%
Barómetro: 1016 hPa
Resumen: Despejado
Visibilidad: greater than 10 km
2020/03/29 05:00 LFMP 290500Z AUTO VRB02KT CAVOK 13/02 Q1016
LFMK - Carcassonne/Salv, France
Distancia a la estación: N 191km
Actualizado: 29/03/2020 07:00
Despejado
Despejado
 Viento del O
Viento: O 11 km/h
Temperatura: 7°C
Sensación Térmica: 5°C
Rocío: 3°C
Humedad: 76%
Barómetro: 1018 hPa
Resumen: Despejado
Visibilidad: greater than 10 km
2020/03/29 05:00 LFMK 290500Z AUTO 26006KT 230V290 CAVOK 07/03 Q1018 NOSIG
 
LEHC - Huesca-Pirineos, Spain
Distancia a la estación: ONO 193km
Actualizado: 29/03/2020 07:00
Despejado
Despejado
 Viento del O
Viento: O 19 km/h
Temperatura: 5°C
Sensación Térmica: 1°C
Rocío: -16°C
Humedad: 20%
Barómetro: 1016 hPa
Resumen: Despejado
Visibilidad: greater than 10 km
2020/03/29 05:00 LEHC 290500Z AUTO 27010KT CAVOK 05/M16 Q1016
LFMU - Beziers/Vias, France
Distancia a la estación: NNE 232km
Actualizado: 29/03/2020 07:00
Despejado
Despejado
 Viento del O
Viento: O 22 km/h
Temperatura: 10°C
Sensación Térmica: 7°C
Rocío: 4°C
Humedad: 67%
Barómetro: 1015 hPa
Resumen: Despejado
Visibilidad: greater than 10 km
2020/03/29 05:00 LFMU 290500Z AUTO 28012KT CAVOK 10/04 Q1015
LEPA - Palma De Mallorc, Spain
Distancia a la estación: SSE 233km
Actualizado: 29/03/2020 07:00
Despejado
Despejado
 Viento del calm
Viento: Calma
Temperatura: 6°C
Rocío: 6°C
Humedad: 100%
Barómetro: 1016 hPa
Resumen: Despejado
Visibilidad: greater than 10 km
2020/03/29 05:00 LEPA 290500Z 00000KT CAVOK 06/06 Q1016 NOSIG
 
LFBO - Toulouse/Blagnac, France
Distancia a la estación: N 236km
Actualizado: 29/03/2020 07:00
Despejado
Despejado
 Viento del ONO
Viento: ONO 9 km/h
Temperatura: 8°C
Sensación Térmica: 6°C
Rocío: 3°C
Humedad: 71%
Barómetro: 1018 hPa
Resumen: Despejado
Visibilidad: greater than 10 km
2020/03/29 05:00 LFBO 290500Z AUTO 29005KT 240V330 CAVOK 08/03 Q1018 NOSIG
LFBT - Tarbes/Ossun, France
Distancia a la estación: NO 239km
Actualizado: 29/03/2020 07:00
Despejado
Despejado
 Viento del S
Viento: S 7 km/h
Temperatura: 4°C
Sensación Térmica: 2°C
Rocío: 2°C
Humedad: 87%
Barómetro: 1019 hPa
Resumen: Despejado
Visibilidad: greater than 10 km
2020/03/29 05:00 LFBT 290500Z AUTO 17004KT CAVOK 04/02 Q1019
LEZG - Zaragoza (mil/Ci, Spain
Distancia a la estación: O 242km
Actualizado: 29/03/2020 07:00
Despejado
Despejado
 Viento del O
Viento: O 30 km/h
Temperatura: 8°C
Sensación Térmica: 4°C
Rocío: 3°C
Humedad: 71%
Barómetro: 1018 hPa
Resumen: Despejado
Visibilidad: greater than 10 km
2020/03/29 05:00 LEZG 290500Z 28016KT CAVOK 08/03 Q1018